createdAt,value
2023-02-08T00:00:44.049Z,14.23
2023-02-08T00:03:16.909Z,14.80
2023-02-08T00:05:49.685Z,14.53
2023-02-08T00:08:22.351Z,14.23
2023-02-08T00:10:54.861Z,14.63
2023-02-08T00:13:28.257Z,14.18
2023-02-08T00:16:00.891Z,14.58
2023-02-08T00:18:33.735Z,14.73
2023-02-08T00:21:12.591Z,15.00
2023-02-08T00:23:45.984Z,14.10
2023-02-08T00:26:18.453Z,14.25
2023-02-08T00:28:50.850Z,15.15
2023-02-08T00:31:23.590Z,15.32
2023-02-08T00:33:57.007Z,14.05
2023-02-08T00:36:30.742Z,14.83
2023-02-08T00:39:03.479Z,14.00
2023-02-08T00:41:36.297Z,15.13
2023-02-08T00:44:09.106Z,14.43
2023-02-08T00:46:42.600Z,15.18
2023-02-08T00:49:15.658Z,15.15
2023-02-08T00:51:49.708Z,14.05
2023-02-08T00:54:23.100Z,15.18
2023-02-08T00:56:55.678Z,15.18
2023-02-08T00:59:29.419Z,16.48
2023-02-08T01:02:02.170Z,14.87
2023-02-08T01:04:34.811Z,15.98
2023-02-08T01:07:08.018Z,16.95
2023-02-08T01:09:42.672Z,14.55
2023-02-08T01:12:17.202Z,16.40
2023-02-08T01:14:49.877Z,15.03
2023-02-08T01:17:22.537Z,16.52
2023-02-08T01:19:55.032Z,17.82
2023-02-08T01:22:29.853Z,16.45
2023-02-08T01:25:02.394Z,15.65
2023-02-08T01:27:35.411Z,15.20
2023-02-08T01:30:09.034Z,15.25
2023-02-08T01:35:13.798Z,12.28
2023-02-08T01:37:46.353Z,14.13
2023-02-08T01:40:19.657Z,13.48
2023-02-08T01:42:52.062Z,13.75
2023-02-08T01:45:32.389Z,13.60
2023-02-08T01:48:13.057Z,14.53
2023-02-08T01:50:50.854Z,15.83
2023-02-08T01:53:23.628Z,13.90
2023-02-08T01:55:59.991Z,14.00
2023-02-08T01:58:49.813Z,12.82
2023-02-08T02:01:22.310Z,13.85
2023-02-08T02:03:55.194Z,14.05
2023-02-08T02:09:41.903Z,16.32
2023-02-08T02:12:14.503Z,14.25
2023-02-08T02:14:47.489Z,14.63
2023-02-08T02:17:20.898Z,14.28
2023-02-08T02:20:18.010Z,14.85
2023-02-08T02:23:24.325Z,15.00
2023-02-08T02:26:27.084Z,15.48
2023-02-08T02:29:29.539Z,14.70
2023-02-08T02:32:24.463Z,15.83
2023-02-08T02:35:13.695Z,14.47
2023-02-08T02:38:30.551Z,15.78
2023-02-08T02:41:46.887Z,16.12
2023-02-08T02:44:45.046Z,16.90
2023-02-08T02:47:37.432Z,15.85
2023-02-08T02:50:38.910Z,17.02
2023-02-08T02:53:23.188Z,16.40
2023-02-08T02:56:09.279Z,17.05
2023-02-08T02:58:42.642Z,15.28
2023-02-08T03:01:15.831Z,16.20
2023-02-08T03:03:48.521Z,15.25
2023-02-08T03:06:28.425Z,16.37
2023-02-08T03:09:32.774Z,15.28
2023-02-08T03:13:00.336Z,14.95
2023-02-08T03:15:55.636Z,17.82
2023-02-08T03:18:41.970Z,19.87
2023-02-08T03:21:20.312Z,18.90
2023-02-08T03:23:57.897Z,18.20
2023-02-08T03:26:53.914Z,17.20
2023-02-08T03:29:43.080Z,16.57
2023-02-08T03:32:55.341Z,15.50
2023-02-08T03:35:41.092Z,14.55
2023-02-08T03:38:27.979Z,13.38
2023-02-08T03:41:01.655Z,13.70
2023-02-08T03:44:00.325Z,14.70
2023-02-08T03:46:36.637Z,15.23
2023-02-08T03:49:12.358Z,15.98
2023-02-08T03:51:44.815Z,15.35
2023-02-08T03:54:23.948Z,14.95
2023-02-08T03:57:27.685Z,15.83
2023-02-08T04:00:19.439Z,15.85
2023-02-08T04:02:57.152Z,15.85
2023-02-08T04:05:30.000Z,15.35
2023-02-08T04:08:02.719Z,15.97
2023-02-08T04:10:35.313Z,17.87
2023-02-08T04:13:08.350Z,16.62
2023-02-08T04:15:40.775Z,16.32
2023-02-08T04:18:13.709Z,15.93
2023-02-08T04:20:46.289Z,15.88
2023-02-08T04:26:04.561Z,14.18
2023-02-08T04:28:37.078Z,15.72
2023-02-08T04:31:09.656Z,14.68
2023-02-08T04:33:42.954Z,17.02
2023-02-08T04:36:15.959Z,16.50
2023-02-08T04:38:48.611Z,16.82
2023-02-08T04:41:21.086Z,17.92
2023-02-08T04:43:53.623Z,16.82
2023-02-08T04:46:26.258Z,18.10
2023-02-08T04:48:59.124Z,16.67
2023-02-08T04:51:32.049Z,14.70
2023-02-08T04:54:04.796Z,17.23
2023-02-08T04:56:38.706Z,17.27
2023-02-08T04:59:11.510Z,16.73
2023-02-08T05:01:44.063Z,16.65
2023-02-08T05:04:16.762Z,16.42
2023-02-08T05:06:49.322Z,17.20
2023-02-08T05:09:22.676Z,17.48
2023-02-08T05:11:55.126Z,17.77
2023-02-08T05:14:27.568Z,20.05
2023-02-08T05:17:00.186Z,17.57
2023-02-08T05:19:32.977Z,18.87
2023-02-08T05:22:05.517Z,17.60
2023-02-08T05:24:38.574Z,17.97
2023-02-08T05:27:11.136Z,18.42
2023-02-08T05:29:43.672Z,19.27
2023-02-08T05:32:16.199Z,17.65
2023-02-08T05:34:48.670Z,16.80
2023-02-08T05:37:21.428Z,16.57
2023-02-08T05:39:54.597Z,18.43
2023-02-08T05:42:27.471Z,16.07
2023-02-08T05:44:59.901Z,15.60
2023-02-08T05:47:32.719Z,18.02
2023-02-08T05:50:05.432Z,18.95
2023-02-08T05:52:38.044Z,17.32
2023-02-08T05:55:11.266Z,16.80
2023-02-08T05:57:43.823Z,16.23
2023-02-08T06:00:17.554Z,17.02
2023-02-08T06:02:50.333Z,16.27
2023-02-08T06:05:22.750Z,17.20
2023-02-08T06:07:55.141Z,16.67
2023-02-08T06:10:28.060Z,16.12
2023-02-08T06:13:01.635Z,18.48
2023-02-08T06:15:34.074Z,17.12
2023-02-08T06:18:06.528Z,27.35
2023-02-08T06:20:40.186Z,22.83
2023-02-08T06:23:24.004Z,20.57
2023-02-08T06:25:56.642Z,18.07
2023-02-08T06:28:29.460Z,17.30
2023-02-08T06:31:02.114Z,15.55
2023-02-08T06:33:35.037Z,16.35
2023-02-08T06:36:08.276Z,16.65
2023-02-08T06:38:40.998Z,18.40
2023-02-08T06:41:13.618Z,18.75
2023-02-08T06:43:46.129Z,18.85
2023-02-08T06:46:18.902Z,18.50
2023-02-08T06:48:51.598Z,18.87
2023-02-08T06:51:24.081Z,19.05
2023-02-08T06:53:56.960Z,20.27
2023-02-08T06:56:29.772Z,18.35
2023-02-08T06:59:02.505Z,17.37
2023-02-08T07:01:35.253Z,17.27
2023-02-08T07:04:08.124Z,17.12
2023-02-08T07:06:40.618Z,17.55
2023-02-08T07:09:13.081Z,18.23
2023-02-08T07:11:46.030Z,17.67
2023-02-08T07:14:18.793Z,17.35
2023-02-08T07:16:53.572Z,16.60
2023-02-08T07:19:27.178Z,16.77
2023-02-08T07:22:06.011Z,17.37
2023-02-08T07:24:42.088Z,17.70
2023-02-08T07:27:15.490Z,17.98
2023-02-08T07:29:47.954Z,18.00
2023-02-08T07:32:20.495Z,17.90
2023-02-08T07:34:54.706Z,21.42
2023-02-08T07:37:27.924Z,19.77
2023-02-08T07:40:00.512Z,19.42
2023-02-08T07:42:34.054Z,18.77
2023-02-08T07:45:27.188Z,19.87
2023-02-08T07:48:00.110Z,18.57
2023-02-08T07:50:33.090Z,19.57
2023-02-08T07:53:06.429Z,20.05
2023-02-08T07:55:38.923Z,19.92
2023-02-08T07:58:11.279Z,20.02
2023-02-08T08:00:43.881Z,20.65
2023-02-08T08:03:16.631Z,19.20
2023-02-08T08:05:53.015Z,18.95
2023-02-08T08:08:24.519Z,20.30
2023-02-08T08:10:57.522Z,21.45
2023-02-08T08:13:30.800Z,20.05
2023-02-08T08:16:03.512Z,20.80
2023-02-08T08:18:36.490Z,19.40
2023-02-08T08:21:09.103Z,19.40
2023-02-08T08:23:41.797Z,20.65
2023-02-08T08:26:19.910Z,19.62
2023-02-08T08:28:52.386Z,18.40
2023-02-08T08:31:25.461Z,17.87
2023-02-08T08:33:58.221Z,16.65
2023-02-08T08:36:31.163Z,18.77
2023-02-08T08:39:03.591Z,18.75
2023-02-08T08:41:37.362Z,18.87
2023-02-08T08:44:09.964Z,17.67
2023-02-08T08:46:44.256Z,17.65
2023-02-08T08:49:17.131Z,16.97
2023-02-08T08:51:49.570Z,18.27
2023-02-08T08:54:22.157Z,17.80
2023-02-08T08:56:54.657Z,17.05
2023-02-08T08:59:27.178Z,19.27
2023-02-08T09:01:59.527Z,18.85
2023-02-08T09:04:32.031Z,17.85
2023-02-08T09:07:04.555Z,18.23
2023-02-08T09:09:37.208Z,25.15
2023-02-08T09:12:09.527Z,19.30
2023-02-08T09:14:42.531Z,18.95
2023-02-08T09:17:14.918Z,17.27
2023-02-08T09:19:47.528Z,21.30
2023-02-08T09:22:20.428Z,23.73
2023-02-08T09:24:55.026Z,17.95
2023-02-08T09:27:27.629Z,18.60
2023-02-08T09:30:00.675Z,18.40
2023-02-08T09:32:34.416Z,18.45
2023-02-08T09:35:07.790Z,18.02
2023-02-08T09:40:23.539Z,17.00
2023-02-08T09:43:21.628Z,18.98
2023-02-08T09:46:01.551Z,20.68
2023-02-08T09:48:40.189Z,18.75
2023-02-08T09:51:42.723Z,19.50
2023-02-08T09:54:20.290Z,17.07
2023-02-08T09:56:52.865Z,17.52
2023-02-08T09:59:28.598Z,18.37
2023-02-08T10:02:29.590Z,18.87
2023-02-08T10:05:09.798Z,17.98
2023-02-08T10:07:42.792Z,20.12
2023-02-08T10:10:22.652Z,18.57
2023-02-08T10:13:20.556Z,19.23
2023-02-08T10:16:10.908Z,21.07
2023-02-08T10:18:53.695Z,18.70
2023-02-08T10:21:49.132Z,20.02
2023-02-08T10:24:44.388Z,19.40
2023-02-08T10:27:49.496Z,18.62
2023-02-08T10:31:00.485Z,18.75
2023-02-08T10:34:12.469Z,18.35
2023-02-08T10:36:45.384Z,18.60
2023-02-08T10:39:27.600Z,17.17
2023-02-08T10:42:00.837Z,18.02
2023-02-08T10:44:43.706Z,17.30
2023-02-08T10:47:40.880Z,16.93
2023-02-08T10:50:30.228Z,16.23
2023-02-08T10:53:02.959Z,16.70
2023-02-08T10:55:37.346Z,17.30
2023-02-08T10:58:20.332Z,18.37
2023-02-08T11:00:52.784Z,15.88
2023-02-08T11:03:27.738Z,15.43
2023-02-08T11:06:00.652Z,14.83
2023-02-08T11:08:35.736Z,17.25
2023-02-08T11:11:10.164Z,16.32
2023-02-08T11:16:27.182Z,18.50
2023-02-08T11:19:09.023Z,18.20
2023-02-08T11:21:42.487Z,24.25
2023-02-08T11:24:28.634Z,17.87
2023-02-08T11:27:02.707Z,17.32
2023-02-08T11:29:35.883Z,18.27
2023-02-08T11:32:20.773Z,17.85
2023-02-08T11:34:53.298Z,17.42
2023-02-08T11:37:29.385Z,16.70
2023-02-08T11:40:02.127Z,16.02
2023-02-08T11:42:43.971Z,16.65
2023-02-08T11:45:26.378Z,16.10
2023-02-08T11:47:58.869Z,15.63
2023-02-08T11:50:38.999Z,15.05
2023-02-08T11:53:29.117Z,15.10
2023-02-08T11:56:14.870Z,16.20
2023-02-08T11:59:08.012Z,13.98
2023-02-08T12:01:42.702Z,15.28
2023-02-08T12:04:17.533Z,13.67
2023-02-08T12:07:12.311Z,12.88
2023-02-08T12:10:21.361Z,12.78
2023-02-08T12:13:22.855Z,13.95
2023-02-08T12:16:32.835Z,15.25
2023-02-08T12:19:25.594Z,15.48
2023-02-08T12:22:05.985Z,15.65
2023-02-08T12:24:45.222Z,16.77
2023-02-08T12:27:52.814Z,16.05
2023-02-08T12:30:46.336Z,14.75
2023-02-08T12:33:50.662Z,14.63
2023-02-08T12:36:39.844Z,14.40
2023-02-08T12:39:59.306Z,15.05
2023-02-08T12:42:48.003Z,16.40
2023-02-08T12:45:43.445Z,16.12
2023-02-08T12:51:16.817Z,15.38
2023-02-08T12:53:53.898Z,15.15
2023-02-08T12:56:31.944Z,17.70
2023-02-08T12:59:13.463Z,16.35
2023-02-08T13:01:47.636Z,15.43
2023-02-08T13:04:27.697Z,17.55
2023-02-08T13:07:04.830Z,17.12
2023-02-08T13:09:55.282Z,16.80
2023-02-08T13:12:53.564Z,17.95
2023-02-08T16:24:53.484Z,20.12
2023-02-08T16:27:31.339Z,18.40
2023-02-08T16:30:03.845Z,20.10
2023-02-08T16:32:39.042Z,18.85
2023-02-08T16:35:25.244Z,18.40
2023-02-08T16:38:02.145Z,18.77
2023-02-08T16:40:51.759Z,19.27
2023-02-08T16:43:29.678Z,20.65
2023-02-08T16:46:39.311Z,19.55
2023-02-08T16:49:11.751Z,19.98
2023-02-08T16:51:45.262Z,21.55
2023-02-08T16:54:19.940Z,20.27
2023-02-08T16:56:54.089Z,20.95
2023-02-08T17:01:59.650Z,20.23
2023-02-08T17:04:32.533Z,21.20
2023-02-08T17:07:05.079Z,23.02
2023-02-08T17:09:39.569Z,23.45
2023-02-08T17:15:10.899Z,23.42
2023-02-08T17:17:43.331Z,23.02
2023-02-08T17:20:29.259Z,23.70
2023-02-08T17:23:03.482Z,22.00
2023-02-08T17:25:36.843Z,22.05
2023-02-08T17:28:18.760Z,23.27
2023-02-08T17:30:53.375Z,24.92
2023-02-08T17:33:27.743Z,24.60
2023-02-08T17:36:00.660Z,23.22
2023-02-08T17:38:33.695Z,24.57
2023-02-08T17:41:08.274Z,24.98
2023-02-08T17:46:16.099Z,23.42
2023-02-08T17:48:48.704Z,26.10
2023-02-08T17:51:23.622Z,24.25
2023-02-08T17:53:56.191Z,23.50
2023-02-08T17:56:32.967Z,24.67
2023-02-08T17:59:05.645Z,24.23
2023-02-08T18:01:39.913Z,26.00
2023-02-08T18:04:13.568Z,27.32
2023-02-08T18:06:46.845Z,25.20
2023-02-08T18:09:19.228Z,25.23
2023-02-08T18:11:51.886Z,36.80
2023-02-08T18:14:24.519Z,25.88
2023-02-08T18:16:59.046Z,25.80
2023-02-08T18:19:31.546Z,26.82
2023-02-08T18:22:05.136Z,26.35
2023-02-08T18:24:38.483Z,25.65
2023-02-08T18:27:11.525Z,24.27
2023-02-08T18:29:44.123Z,24.15
2023-02-08T18:32:18.458Z,26.82
2023-02-08T18:34:51.312Z,25.12
2023-02-08T18:37:23.754Z,25.40
2023-02-08T18:39:56.086Z,27.42
2023-02-08T18:42:28.556Z,26.82
2023-02-08T18:45:01.571Z,26.60
2023-02-08T18:47:39.733Z,27.10
2023-02-08T18:50:12.358Z,26.10
2023-02-08T18:52:44.938Z,29.42
2023-02-08T18:55:17.845Z,28.00
2023-02-08T18:57:50.849Z,29.02
2023-02-08T19:00:23.716Z,28.92
2023-02-08T19:02:56.323Z,28.67
2023-02-08T19:05:28.784Z,27.25
2023-02-08T19:08:01.727Z,27.65
2023-02-08T19:10:38.997Z,26.60
2023-02-08T19:13:11.938Z,28.30
2023-02-08T19:15:46.029Z,34.30
2023-02-08T19:18:19.945Z,43.48
2023-02-08T19:20:52.816Z,37.20
2023-02-08T19:23:25.124Z,43.25
2023-02-08T19:25:57.524Z,40.55
2023-02-08T19:28:32.233Z,44.58
2023-02-08T19:33:54.589Z,49.80
2023-02-08T19:36:30.315Z,50.80
2023-02-08T19:39:02.791Z,43.38
2023-02-08T19:41:39.176Z,40.75
2023-02-08T19:44:14.937Z,38.48
2023-02-08T19:46:52.849Z,44.27
2023-02-08T19:49:27.406Z,41.88
2023-02-08T19:51:59.861Z,37.17
2023-02-08T19:54:32.559Z,37.13
2023-02-08T19:57:05.765Z,37.98
2023-02-08T19:59:39.983Z,33.42
2023-02-08T20:02:15.272Z,34.00
2023-02-08T20:04:47.708Z,32.80
2023-02-08T20:07:20.181Z,35.58
2023-02-08T20:09:53.404Z,36.03
2023-02-08T20:12:27.107Z,42.00
2023-02-08T20:15:00.475Z,43.38
2023-02-08T20:17:35.050Z,44.73
2023-02-08T20:20:30.174Z,42.27
2023-02-08T20:23:06.987Z,41.30
2023-02-08T20:25:38.457Z,38.38
2023-02-08T20:28:10.815Z,37.35
2023-02-08T20:30:46.420Z,38.45
2023-02-08T20:33:19.709Z,33.25
2023-02-08T20:35:52.069Z,32.70
2023-02-08T20:38:24.520Z,34.27
2023-02-08T20:41:06.952Z,34.50
2023-02-08T20:43:39.603Z,31.35
2023-02-08T20:46:19.759Z,29.60
2023-02-08T20:48:52.808Z,31.52
2023-02-08T20:51:26.179Z,32.70
2023-02-08T20:53:59.864Z,37.08
2023-02-08T20:56:35.732Z,33.00
2023-02-08T20:59:11.687Z,34.95
2023-02-08T21:01:45.754Z,34.55
2023-02-08T21:04:19.863Z,35.95
2023-02-08T21:06:52.760Z,32.13
2023-02-08T21:09:25.154Z,34.10
2023-02-08T21:11:57.485Z,35.48
2023-02-08T21:14:29.966Z,35.98
2023-02-08T21:17:03.977Z,30.15
2023-02-08T21:19:37.223Z,29.10
2023-02-08T21:22:10.419Z,27.73
2023-02-08T21:24:43.592Z,32.75
2023-02-08T21:27:16.065Z,29.32
2023-02-08T21:29:52.714Z,29.35
2023-02-08T21:32:25.549Z,28.87
2023-02-08T21:34:58.116Z,31.23
2023-02-08T21:37:30.501Z,29.42
2023-02-08T21:40:02.936Z,27.77
2023-02-08T21:42:36.797Z,27.85
2023-02-08T21:45:09.992Z,27.45
2023-02-08T21:47:42.480Z,27.03
2023-02-08T21:50:28.418Z,28.50
2023-02-08T21:53:19.550Z,29.55
2023-02-08T21:55:52.081Z,30.50
2023-02-08T21:58:24.664Z,31.02
2023-02-08T22:00:57.195Z,30.25
2023-02-08T22:03:31.515Z,28.27
